Time;durP1;ratioP1;P1;durP2;ratioP2;P2;SDS_P1;SDS_P2;PMS_P1;PMS_P2;Temp;Humidity;BMP_temperature;BMP_pressure;BME280_temperature;BME280_humidity;BME280_pressure;Samples;Min_cycle;Max_cycle;Signal;HPM_P1;HPM_P2
2021/05/04 00:01:37;;;;;;;11.88;8.23;;;10.60;98.20;;;;;;5061174;28;20140;-78
2021/05/04 00:04:03;;;;;;;12.38;8.00;;;10.60;98.10;;;;;;5064632;28;20107;-80
2021/05/04 00:06:29;;;;;;;11.32;8.93;;;10.60;98.50;;;;;;5087384;28;20098;-80
2021/05/04 00:08:55;;;;;;;10.48;7.28;;;10.60;98.70;;;;;;5089843;28;20052;-80
2021/05/04 00:11:21;;;;;;;8.85;7.30;;;11.40;98.90;;;;;;5092448;28;20089;-80
2021/05/04 00:13:48;;;;;;;11.02;8.43;;;10.60;98.90;;;;;;5076215;28;20399;-79
2021/05/04 00:16:14;;;;;;;10.02;8.27;;;10.90;99.30;;;;;;5092851;28;20115;-79
2021/05/04 00:18:40;;;;;;;9.23;7.47;;;10.50;99.40;;;;;;5092669;28;20051;-79
2021/05/04 00:21:06;;;;;;;9.82;7.53;;;10.50;99.30;;;;;;5092766;28;20484;-79
2021/05/04 00:23:32;;;;;;;10.45;7.30;;;10.50;99.20;;;;;;5075687;28;20036;-79
2021/05/04 00:25:58;;;;;;;11.68;7.75;;;10.40;99.50;;;;;;5091479;28;20036;-79
2021/05/04 00:28:24;;;;;;;9.57;7.32;;;10.40;99.70;;;;;;5069124;28;20064;-79
2021/05/04 00:30:49;;;;;;;9.02;7.13;;;10.40;99.90;;;;;;5093957;28;20032;-79
2021/05/04 00:33:18;;;;;;;8.73;6.97;;;10.40;99.70;;;;;;5092409;28;20122;-80
2021/05/04 00:35:44;;;;;;;9.68;6.88;;;10.40;99.80;;;;;;5075780;28;20040;-80
2021/05/04 00:38:10;;;;;;;10.38;6.75;;;11.10;99.90;;;;;;5092225;28;20093;-80
2021/05/04 00:40:38;;;;;;;9.13;7.15;;;10.30;99.90;;;;;;5092372;28;20040;-80
2021/05/04 00:43:06;;;;;;;10.48;6.60;;;10.30;99.90;;;;;;5091957;28;20043;-80
2021/05/04 00:45:32;;;;;;;8.68;6.82;;;10.20;99.90;;;;;;5075728;28;20028;-80
2021/05/04 00:47:58;;;;;;;8.35;6.88;;;10.20;99.90;;;;;;5075540;28;20036;-83
2021/05/04 00:50:24;;;;;;;7.75;6.18;;;10.10;99.90;;;;;;5092523;28;20373;-82
2021/05/04 00:52:51;;;;;;;7.45;6.60;;;10.10;99.90;;;;;;5093464;28;20476;-83
2021/05/04 00:55:17;;;;;;;9.52;6.85;;;10.00;99.90;;;;;;5093431;28;20039;-83
2021/05/04 00:57:48;;;;;;;11.13;6.85;;;10.00;99.90;;;;;;5093395;28;20097;-83
2021/05/04 01:00:15;;;;;;;12.13;7.55;;;9.90;99.90;;;;;;5058518;28;20032;-83
2021/05/04 01:02:42;;;;;;;9.68;6.85;;;9.90;99.90;;;;;;5093069;28;20395;-80
2021/05/04 01:05:10;;;;;;;8.57;7.00;;;9.70;99.90;;;;;;5102064;28;20067;-80
2021/05/04 01:07:36;;;;;;;10.02;7.18;;;9.80;99.90;;;;;;5113186;28;20092;-80
2021/05/04 01:10:06;;;;;;;9.90;7.10;;;9.70;99.90;;;;;;5095252;28;20123;-81
2021/05/04 01:12:32;;;;;;;7.30;6.43;;;9.70;99.90;;;;;;5102610;28;20039;-81
2021/05/04 01:14:58;;;;;;;10.63;7.30;;;9.60;99.90;;;;;;5077953;28;20078;-79
2021/05/04 01:17:24;;;;;;;9.13;7.15;;;9.60;99.90;;;;;;5111745;28;20065;-81
2021/05/04 01:19:50;;;;;;;9.07;7.60;;;9.50;99.90;;;;;;5094952;28;20634;-82
2021/05/04 01:22:19;;;;;;;10.65;7.55;;;9.50;99.90;;;;;;5086306;28;20052;-82
2021/05/04 01:24:47;;;;;;;11.45;8.10;;;10.30;99.90;;;;;;5112901;28;20039;-81
2021/05/04 01:27:14;;;;;;;10.20;8.23;;;9.50;99.90;;;;;;5095758;28;20059;-81
2021/05/04 01:29:41;;;;;;;12.68;7.45;;;9.40;99.90;;;;;;5074853;28;20062;-83
2021/05/04 01:32:08;;;;;;;10.00;8.80;;;9.40;99.90;;;;;;5112465;28;20032;-79
2021/05/04 01:34:36;;;;;;;11.00;7.72;;;9.40;99.90;;;;;;5092699;28;20035;-79
2021/05/04 01:37:05;;;;;;;14.20;8.82;;;9.30;99.90;;;;;;5094960;28;20036;-79
2021/05/04 01:39:45;;;;;;;11.23;7.90;;;9.30;99.90;;;;;;5094886;28;20035;-78
2021/05/04 01:42:12;;;;;;;11.73;8.55;;;9.30;99.90;;;;;;5101700;28;20118;-76
2021/05/04 01:44:38;;;;;;;9.60;7.65;;;9.20;99.90;;;;;;5090307;28;20036;-78
2021/05/04 01:47:05;;;;;;;10.13;7.88;;;9.20;99.90;;;;;;5112540;28;20031;-78
2021/05/04 01:49:31;;;;;;;15.65;8.48;;;9.70;99.90;;;;;;5094700;28;20031;-77
2021/05/04 01:51:58;;;;;;;11.57;8.25;;;9.20;99.90;;;;;;5108583;28;20032;-77
2021/05/04 01:54:24;;;;;;;14.57;8.70;;;9.10;99.90;;;;;;5112617;28;20036;-78
2021/05/04 01:56:56;;;;;;;11.82;8.65;;;9.60;99.90;;;;;;5112852;28;20421;-78
2021/05/04 01:59:24;;;;;;;17.80;8.75;;;9.00;99.90;;;;;;5104245;28;20036;-76
2021/05/04 02:01:50;;;;;;;10.25;8.10;;;9.00;99.90;;;;;;5112492;28;20044;-75
2021/05/04 02:04:16;;;;;;;13.80;10.18;;;9.00;99.90;;;;;;5112956;28;20034;-77
2021/05/04 02:06:42;;;;;;;13.43;8.50;;;9.10;99.90;;;;;;5094152;28;20047;-74
2021/05/04 02:09:09;;;;;;;14.02;9.50;;;9.00;99.90;;;;;;5101154;28;20028;-74
2021/05/04 02:11:36;;;;;;;10.77;9.15;;;8.90;99.90;;;;;;5112554;28;20509;-74
2021/05/04 02:14:06;;;;;;;14.23;9.27;;;9.10;99.90;;;;;;5111341;28;20051;-74
2021/05/04 02:16:36;;;;;;;11.60;9.50;;;8.90;99.90;;;;;;5112197;28;20028;-74
2021/05/04 02:19:02;;;;;;;11.93;9.40;;;8.90;99.90;;;;;;5094672;28;20067;-74
2021/05/04 02:21:28;;;;;;;11.90;9.32;;;8.90;99.90;;;;;;5112629;28;20038;-74
2021/05/04 02:23:54;;;;;;;12.30;10.02;;;8.90;99.90;;;;;;5094581;28;20055;-77
2021/05/04 02:26:20;;;;;;;18.27;10.27;;;8.80;99.90;;;;;;5100418;28;20067;-77
2021/05/04 02:28:47;;;;;;;16.27;8.88;;;8.80;99.90;;;;;;5112873;28;20036;-78
2021/05/04 02:31:13;;;;;;;12.00;9.27;;;8.80;99.90;;;;;;5111329;28;20042;-78
2021/05/04 02:33:41;;;;;;;14.13;10.93;;;8.70;99.90;;;;;;5112877;28;20122;-76
2021/05/04 02:36:07;;;;;;;16.70;10.07;;;8.80;99.90;;;;;;5112260;28;20032;-76
2021/05/04 02:38:34;;;;;;;13.88;9.63;;;8.70;99.90;;;;;;5112296;28;20051;-77
2021/05/04 02:41:01;;;;;;;10.60;8.98;;;8.70;99.90;;;;;;5097968;28;20052;-77
2021/05/04 02:43:28;;;;;;;12.85;8.60;;;8.70;99.90;;;;;;5098200;28;20046;-76
2021/05/04 02:45:54;;;;;;;12.68;9.35;;;8.70;99.90;;;;;;5094322;28;20031;-76
2021/05/04 02:48:20;;;;;;;11.68;8.68;;;8.70;99.90;;;;;;5110298;28;20038;-76
2021/05/04 02:50:46;;;;;;;9.70;8.45;;;8.60;99.90;;;;;;5111540;28;20552;-75
2021/05/04 02:53:15;;;;;;;15.98;8.75;;;9.40;99.90;;;;;;5111959;28;20032;-76
2021/05/04 02:55:40;;;;;;;11.68;7.78;;;9.20;99.90;;;;;;5112368;28;20108;-76
2021/05/04 02:58:07;;;;;;;9.63;7.40;;;9.20;99.90;;;;;;5115020;28;20403;-76
2021/05/04 03:00:34;;;;;;;10.43;7.20;;;8.90;99.90;;;;;;5116317;28;20048;-76
2021/05/04 03:03:00;;;;;;;11.93;7.82;;;8.60;99.90;;;;;;5097985;28;20464;-76
2021/05/04 03:05:26;;;;;;;11.45;6.63;;;8.60;99.90;;;;;;5095859;28;20043;-76
2021/05/04 03:07:52;;;;;;;9.98;6.65;;;8.60;99.90;;;;;;5098250;28;20048;-76
2021/05/04 03:10:18;;;;;;;7.00;5.78;;;8.80;99.90;;;;;;5098126;28;20077;-76
2021/05/04 03:12:44;;;;;;;11.82;5.60;;;8.70;99.90;;;;;;5098095;28;20036;-76
2021/05/04 03:15:10;;;;;;;8.85;5.97;;;8.50;99.90;;;;;;5115651;28;20381;-77
2021/05/04 03:17:39;;;;;;;8.32;5.50;;;8.50;99.90;;;;;;5098243;28;20239;-76
2021/05/04 03:20:06;;;;;;;8.90;5.65;;;8.50;99.90;;;;;;5115670;28;20472;-77
2021/05/04 03:22:32;;;;;;;8.57;5.30;;;8.50;99.90;;;;;;5114387;28;20036;-77
2021/05/04 03:24:58;;;;;;;9.25;5.50;;;8.50;99.90;;;;;;5115367;28;20043;-77
2021/05/04 03:27:24;;;;;;;10.60;5.65;;;8.50;99.90;;;;;;5115293;28;20028;-78
2021/05/04 03:29:50;;;;;;;9.63;5.40;;;8.50;99.90;;;;;;5115745;28;20440;-78
2021/05/04 03:32:16;;;;;;;9.18;5.45;;;8.50;99.90;;;;;;5115627;28;20035;-78
2021/05/04 03:34:45;;;;;;;10.30;5.18;;;8.50;99.90;;;;;;5115305;28;20381;-78
2021/05/04 03:37:11;;;;;;;10.32;5.05;;;8.50;99.90;;;;;;5115525;28;20047;-78
2021/05/04 03:39:36;;;;;;;6.53;5.20;;;8.50;99.90;;;;;;5095323;28;20403;-77
2021/05/04 03:42:02;;;;;;;9.30;5.50;;;8.50;99.90;;;;;;5099718;28;20039;-77
2021/05/04 03:44:28;;;;;;;6.53;5.28;;;8.40;99.90;;;;;;5115436;28;20624;-77
2021/05/04 03:46:54;;;;;;;11.45;5.72;;;8.50;99.90;;;;;;5114734;28;20032;-78
2021/05/04 03:49:20;;;;;;;6.68;4.78;;;8.50;99.90;;;;;;5096964;28;20406;-77
2021/05/04 03:51:46;;;;;;;9.52;5.00;;;8.50;99.90;;;;;;5109165;28;20396;-77
2021/05/04 03:54:11;;;;;;;9.00;4.95;;;8.50;99.90;;;;;;5063591;28;20570;-77
2021/05/04 03:56:40;;;;;;;6.05;4.72;;;8.50;99.90;;;;;;5095481;28;20036;-79
2021/05/04 03:59:06;;;;;;;7.03;4.47;;;8.50;99.90;;;;;;5114936;28;20040;-78
2021/05/04 04:01:32;;;;;;;6.88;4.80;;;8.50;99.90;;;;;;5096794;28;20046;-78
2021/05/04 04:04:01;;;;;;;8.70;5.25;;;8.50;99.90;;;;;;5077280;28;20042;-78
2021/05/04 04:06:31;;;;;;;8.45;5.03;;;8.50;99.90;;;;;;5081376;28;20055;-77
2021/05/04 04:08:57;;;;;;;8.15;4.90;;;8.50;99.90;;;;;;5095568;28;20070;-77
2021/05/04 04:11:23;;;;;;;8.57;4.97;;;8.50;99.90;;;;;;5113557;28;20040;-77
2021/05/04 04:13:49;;;;;;;7.53;5.13;;;8.50;99.90;;;;;;5114653;28;20043;-77
2021/05/04 04:16:15;;;;;;;8.68;5.03;;;8.50;99.90;;;;;;5115030;28;20121;-77
2021/05/04 04:18:41;;;;;;;8.65;5.57;;;8.50;99.90;;;;;;5096436;28;20479;-77
2021/05/04 04:21:07;;;;;;;11.50;5.50;;;8.50;99.90;;;;;;5114529;28;20031;-77
2021/05/04 04:23:33;;;;;;;8.65;4.85;;;8.60;99.90;;;;;;5095641;28;20119;-77
2021/05/04 04:25:59;;;;;;;7.30;5.60;;;8.70;99.90;;;;;;5104516;28;20120;-76
2021/05/04 04:28:24;;;;;;;14.30;5.47;;;8.60;99.90;;;;;;5114752;28;20036;-76
2021/05/04 04:30:51;;;;;;;8.68;5.18;;;8.60;99.90;;;;;;5114285;28;20393;-76
2021/05/04 04:33:27;;;;;;;7.93;4.85;;;8.70;99.90;;;;;;5114395;28;20038;-78
2021/05/04 04:35:53;;;;;;;7.63;4.78;;;8.60;99.90;;;;;;5113537;28;20654;-78
2021/05/04 04:38:19;;;;;;;5.82;4.40;;;8.60;99.90;;;;;;5096279;28;20119;-78
2021/05/04 04:40:46;;;;;;;6.63;4.97;;;8.60;99.90;;;;;;5112558;28;20035;-78
2021/05/04 04:43:12;;;;;;;8.43;4.78;;;8.60;99.90;;;;;;5095961;28;20114;-79
2021/05/04 04:45:38;;;;;;;7.50;5.40;;;8.70;99.90;;;;;;5087122;28;20115;-77
2021/05/04 04:48:04;;;;;;;7.53;5.28;;;8.60;99.90;;;;;;5113898;28;20118;-77
2021/05/04 04:50:30;;;;;;;8.60;5.70;;;8.70;99.90;;;;;;5114316;28;20036;-76
2021/05/04 04:52:56;;;;;;;8.57;5.68;;;8.70;99.90;;;;;;5095378;28;20088;-76
2021/05/04 04:55:22;;;;;;;9.85;5.20;;;8.70;99.90;;;;;;5114319;28;20038;-76
2021/05/04 04:57:48;;;;;;;8.18;5.22;;;8.60;99.90;;;;;;5112271;28;20027;-76
2021/05/04 05:00:14;;;;;;;10.63;5.05;;;8.60;99.90;;;;;;5113695;28;20028;-76
2021/05/04 05:02:41;;;;;;;6.53;4.53;;;8.60;99.90;;;;;;5114016;28;20074;-76
2021/05/04 05:05:07;;;;;;;9.68;4.95;;;8.60;99.90;;;;;;5113858;28;20064;-76
2021/05/04 05:07:33;;;;;;;8.07;4.63;;;8.70;99.90;;;;;;5077366;28;20039;-76
2021/05/04 05:09:59;;;;;;;10.60;5.05;;;8.80;99.90;;;;;;5095452;28;20062;-76
2021/05/04 05:12:27;;;;;;;13.88;5.03;;;8.70;99.90;;;;;;5095380;28;20034;-76
2021/05/04 05:14:53;;;;;;;8.13;4.43;;;8.70;99.90;;;;;;5112197;28;20118;-76
2021/05/04 05:17:20;;;;;;;8.68;4.75;;;8.60;99.90;;;;;;5113831;28;20031;-77
2021/05/04 05:19:46;;;;;;;7.47;4.32;;;8.60;99.90;;;;;;5113072;28;20130;-77
2021/05/04 05:22:12;;;;;;;6.63;4.07;;;8.90;99.90;;;;;;5078483;28;20063;-77
2021/05/04 05:24:39;;;;;;;11.05;4.32;;;8.60;99.90;;;;;;5078523;28;20479;-77
2021/05/04 05:27:05;;;;;;;6.13;4.15;;;8.60;99.90;;;;;;5112794;28;20055;-76
2021/05/04 05:29:34;;;;;;;7.22;3.80;;;8.60;99.90;;;;;;5095117;28;20110;-75
2021/05/04 05:32:01;;;;;;;6.80;3.72;;;8.70;99.90;;;;;;5103209;28;20047;-77
2021/05/04 05:34:27;;;;;;;13.93;4.35;;;8.70;99.90;;;;;;5124439;27;20055;-77
2021/05/04 05:36:54;;;;;;;11.07;3.85;;;8.70;99.90;;;;;;5113254;28;20100;-77
2021/05/04 05:39:20;;;;;;;8.48;4.18;;;8.70;99.90;;;;;;5113448;28;20039;-78
2021/05/04 05:41:46;;;;;;;5.63;4.03;;;8.70;99.90;;;;;;5095032;28;20040;-78
2021/05/04 05:44:13;;;;;;;7.32;4.18;;;8.70;99.90;;;;;;5095109;28;20043;-81
2021/05/04 05:46:40;;;;;;;6.78;4.07;;;8.70;99.90;;;;;;5112888;28;20043;-81
2021/05/04 05:49:12;;;;;;;5.85;3.70;;;9.20;99.90;;;;;;5075578;28;20028;-80
2021/05/04 05:51:38;;;;;;;6.25;3.90;;;8.70;99.90;;;;;;5111454;28;20218;-81
2021/05/04 05:54:05;;;;;;;8.57;4.10;;;8.60;99.90;;;;;;5112451;28;20046;-78
2021/05/04 05:56:31;;;;;;;6.00;3.95;;;8.70;99.90;;;;;;5094603;28;20051;-78
2021/05/04 05:58:57;;;;;;;8.45;3.95;;;9.00;99.90;;;;;;5094851;28;20036;-76
2021/05/04 06:01:22;;;;;;;10.60;4.35;;;9.00;99.90;;;;;;5101073;28;20474;-79
2021/05/04 06:03:49;;;;;;;7.85;4.20;;;8.70;99.90;;;;;;5089246;28;20101;-79
2021/05/04 06:06:15;;;;;;;7.97;3.88;;;8.80;99.90;;;;;;5090766;28;20083;-81
2021/05/04 06:08:43;;;;;;;10.13;4.10;;;8.80;99.90;;;;;;5092280;28;20036;-80
2021/05/04 06:11:08;;;;;;;10.07;4.13;;;8.80;99.90;;;;;;5091328;28;20032;-81
2021/05/04 06:13:34;;;;;;;8.45;4.38;;;8.80;99.90;;;;;;5092395;28;20039;-81
2021/05/04 06:16:00;;;;;;;11.40;4.95;;;9.00;99.90;;;;;;5087768;28;20395;-81
2021/05/04 06:18:29;;;;;;;15.10;5.30;;;8.90;99.90;;;;;;5073026;28;20086;-81
2021/05/04 06:20:55;;;;;;;11.98;4.68;;;8.90;99.90;;;;;;5072745;28;20089;-80
2021/05/04 06:23:21;;;;;;;11.50;4.75;;;8.90;99.90;;;;;;5092151;28;20032;-77
2021/05/04 06:25:47;;;;;;;12.98;5.28;;;8.90;99.90;;;;;;5087117;28;20040;-77
2021/05/04 06:28:15;;;;;;;15.18;5.15;;;8.90;99.90;;;;;;5088982;28;20391;-77
2021/05/04 06:30:41;;;;;;;12.50;5.05;;;9.00;99.90;;;;;;5090755;28;20032;-81
2021/05/04 06:33:09;;;;;;;16.38;6.03;;;9.20;99.90;;;;;;5089663;28;20086;-78
2021/05/04 06:35:38;;;;;;;11.27;4.90;;;9.00;99.90;;;;;;5088867;28;20047;-79
2021/05/04 06:38:05;;;;;;;14.07;5.20;;;9.00;99.90;;;;;;5104524;27;20088;-80
2021/05/04 06:40:32;;;;;;;15.20;5.18;;;9.00;99.90;;;;;;5094204;28;20173;-79
2021/05/04 06:42:58;;;;;;;14.80;4.90;;;9.10;99.90;;;;;;5109443;28;20042;-78
2021/05/04 06:45:25;;;;;;;15.63;5.30;;;9.10;99.90;;;;;;5111969;28;20027;-79
2021/05/04 06:47:51;;;;;;;15.77;4.93;;;9.10;99.90;;;;;;5108396;28;20054;-80
2021/05/04 06:50:20;;;;;;;14.63;4.72;;;9.10;99.90;;;;;;5110621;28;20039;-79
2021/05/04 06:52:46;;;;;;;15.52;5.00;;;9.20;99.90;;;;;;5106295;28;20097;-77
2021/05/04 06:55:12;;;;;;;15.75;4.70;;;9.20;99.90;;;;;;5109434;28;20031;-78
2021/05/04 06:57:39;;;;;;;13.18;4.50;;;9.10;99.90;;;;;;5112009;28;20050;-79
2021/05/04 07:00:07;;;;;;;11.00;4.28;;;9.40;99.90;;;;;;5109951;28;20110;-80
2021/05/04 07:02:34;;;;;;;12.68;3.85;;;9.10;99.90;;;;;;5106332;28;20211;-79
2021/05/04 07:05:01;;;;;;;12.00;3.72;;;9.10;99.90;;;;;;5107335;27;20048;-79
2021/05/04 07:07:27;;;;;;;13.40;3.95;;;9.20;99.90;;;;;;5127173;27;20039;-79
2021/05/04 07:09:53;;;;;;;12.95;3.92;;;9.20;99.90;;;;;;5129854;27;21510;-79
2021/05/04 07:12:18;;;;;;;13.23;4.43;;;9.30;99.90;;;;;;5133436;27;20043;-79
2021/05/04 07:14:44;;;;;;;14.65;4.60;;;9.30;99.90;;;;;;5132755;27;20070;-79
2021/05/04 07:17:10;;;;;;;15.25;4.05;;;9.30;99.90;;;;;;5141581;27;20050;-78
2021/05/04 07:19:39;;;;;;;14.10;4.00;;;9.40;99.90;;;;;;5108805;27;20082;-79
2021/05/04 07:22:08;;;;;;;19.15;3.92;;;9.30;99.90;;;;;;5129054;27;20117;-78
2021/05/04 07:24:34;;;;;;;13.60;3.80;;;9.40;99.90;;;;;;5092471;27;20067;-79
2021/05/04 07:27:00;;;;;;;17.80;4.15;;;9.30;99.90;;;;;;5106310;27;20074;-79
2021/05/04 07:29:26;;;;;;;16.20;3.90;;;9.30;99.90;;;;;;5111053;27;20042;-79
2021/05/04 07:31:52;;;;;;;15.52;3.42;;;9.30;99.90;;;;;;5130967;27;20035;-76
2021/05/04 07:34:17;;;;;;;13.95;3.80;;;9.60;99.90;;;;;;5109814;27;20046;-76
2021/05/04 07:36:43;;;;;;;16.30;3.85;;;9.60;99.90;;;;;;5109982;27;20057;-76
2021/05/04 07:39:09;;;;;;;18.20;3.75;;;9.30;99.90;;;;;;5128532;27;20043;-76
2021/05/04 07:41:35;;;;;;;23.02;4.20;;;9.30;99.90;;;;;;5112001;27;20498;-75
2021/05/04 07:44:02;;;;;;;22.40;4.25;;;9.40;99.90;;;;;;5128524;27;20103;-76
2021/05/04 07:46:29;;;;;;;16.45;3.85;;;9.30;99.90;;;;;;5107255;27;20053;-78
2021/05/04 07:48:56;;;;;;;26.95;5.00;;;9.40;99.90;;;;;;5071465;27;20126;-79
2021/05/04 07:51:22;;;;;;;23.52;4.18;;;9.30;99.90;;;;;;5104545;27;20039;-76
2021/05/04 07:53:49;;;;;;;24.05;4.65;;;9.60;99.90;;;;;;5089244;27;20387;-75
2021/05/04 07:56:15;;;;;;;21.27;4.47;;;9.30;99.90;;;;;;5108246;27;20027;-76
2021/05/04 07:58:41;;;;;;;25.75;5.00;;;9.40;99.90;;;;;;5111957;27;20031;-78
2021/05/04 08:01:09;;;;;;;25.52;4.68;;;9.40;99.90;;;;;;5110349;27;21214;-75
2021/05/04 08:03:38;;;;;;;25.92;4.60;;;9.50;99.90;;;;;;5127768;27;20084;-76
2021/05/04 08:06:07;;;;;;;35.58;5.35;;;9.50;99.90;;;;;;5121717;27;20062;-75
2021/05/04 08:08:42;;;;;;;24.53;4.63;;;9.60;99.90;;;;;;5107641;27;20394;-80
2021/05/04 08:11:11;;;;;;;24.45;4.38;;;9.70;99.90;;;;;;5109429;27;20023;-77
2021/05/04 08:13:37;;;;;;;26.00;4.40;;;9.80;99.90;;;;;;5109140;27;20482;-79
2021/05/04 08:16:07;;;;;;;24.60;4.18;;;10.40;99.90;;;;;;5105846;27;20031;-78
2021/05/04 08:18:33;;;;;;;15.25;3.80;;;9.90;99.90;;;;;;5126330;27;20039;-77
2021/05/04 08:21:25;;;;;;;29.40;4.15;;;9.90;99.90;;;;;;5107112;27;20036;-78
2021/05/04 08:24:06;;;;;;;18.25;3.40;;;10.00;99.90;;;;;;5110958;27;20044;-73
2021/05/04 08:26:32;;;;;;;18.58;3.67;;;10.00;99.90;;;;;;5126808;27;20491;-74
2021/05/04 08:28:58;;;;;;;17.23;3.10;;;10.00;99.90;;;;;;5128103;27;20045;-76
2021/05/04 08:31:26;;;;;;;16.85;4.00;;;10.10;99.90;;;;;;5130843;27;20039;-74
2021/05/04 08:33:52;;;;;;;18.13;3.55;;;10.00;99.90;;;;;;5130669;27;20035;-74
2021/05/04 08:36:18;;;;;;;12.73;3.38;;;10.00;99.90;;;;;;5121912;27;20035;-74
2021/05/04 08:38:44;;;;;;;16.73;3.17;;;10.10;99.90;;;;;;5093440;27;20062;-73
2021/05/04 08:41:16;;;;;;;17.27;3.08;;;10.20;99.90;;;;;;5128509;27;20044;-74
2021/05/04 08:43:52;;;;;;;22.23;3.70;;;10.40;99.90;;;;;;5113193;27;20142;-73
2021/05/04 08:46:21;;;;;;;12.90;2.92;;;10.20;99.90;;;;;;5129294;27;20080;-74
2021/05/04 08:48:53;;;;;;;17.52;2.95;;;10.30;99.90;;;;;;5112683;27;20035;-74
2021/05/04 08:51:19;;;;;;;17.15;3.20;;;10.40;99.90;;;;;;5111381;27;20061;-74
2021/05/04 08:53:45;;;;;;;13.98;3.33;;;10.80;99.90;;;;;;5129169;27;20039;-77
2021/05/04 08:56:15;;;;;;;22.95;4.15;;;10.60;99.90;;;;;;5110432;27;20031;-73
2021/05/04 08:58:42;;;;;;;16.08;3.97;;;10.60;99.90;;;;;;5127607;27;20055;-77
2021/05/04 09:01:08;;;;;;;14.85;3.22;;;10.70;99.90;;;;;;5128003;27;20039;-78
2021/05/04 09:03:45;;;;;;;20.58;4.30;;;10.60;99.90;;;;;;5089873;27;20047;-74
2021/05/04 09:08:52;;;;;;;13.85;2.95;;;10.80;99.90;;;;;;5105489;27;20122;-78
2021/05/04 09:14:23;;;;;;;8.43;1.75;;;10.80;99.90;;;;;;5127828;27;20035;-77
2021/05/04 09:21:54;;;;;;;13.52;2.58;;;10.30;99.90;;;;;;5128584;27;20043;-74
2021/05/04 09:24:50;;;;;;;17.67;3.17;;;10.40;99.90;;;;;;5109385;27;20475;-75
2021/05/04 09:27:17;;;;;;;13.25;3.25;;;10.10;99.90;;;;;;5070946;27;20486;-74
2021/05/04 09:29:55;;;;;;;12.10;2.92;;;10.20;99.90;;;;;;5127955;27;20122;-77
2021/05/04 09:32:31;;;;;;;10.20;2.50;;;10.20;99.90;;;;;;5097156;27;20035;-76
2021/05/04 09:35:03;;;;;;;11.18;2.13;;;10.20;99.90;;;;;;5107238;27;20462;-74
2021/05/04 09:37:41;;;;;;;9.88;2.40;;;9.90;99.90;;;;;;5127213;27;20038;-74
2021/05/04 09:40:29;;;;;;;15.98;2.67;;;9.80;99.90;;;;;;5110840;27;20122;-74
2021/05/04 09:43:15;;;;;;;18.27;3.08;;;9.80;99.90;;;;;;5130358;27;20048;-78
2021/05/04 09:45:54;;;;;;;;;;;9.90;99.90;;;;;;5109211;27;20462;-78
2021/05/04 09:48:31;;;;;;;14.65;3.15;;;9.90;99.90;;;;;;5108232;27;19923;-78
2021/05/04 09:51:17;;;;;;;16.88;2.85;;;9.80;99.90;;;;;;5128379;27;20036;-77
2021/05/04 09:53:47;;;;;;;13.73;2.67;;;9.80;99.90;;;;;;5128973;27;20474;-78
2021/05/04 09:56:29;;;;;;;10.77;1.83;;;9.50;99.90;;;;;;5129526;27;20476;-78
2021/05/04 09:58:55;;;;;;;9.40;2.00;;;9.40;99.90;;;;;;5089433;27;20091;-77
2021/05/04 10:01:24;;;;;;;8.25;1.55;;;9.20;99.90;;;;;;5105665;28;20456;-77
2021/05/04 10:03:51;;;;;;;9.43;2.10;;;9.10;99.90;;;;;;5119918;27;20036;-77
2021/05/04 10:06:19;;;;;;;13.85;2.53;;;9.20;99.90;;;;;;5107540;28;20049;-77
2021/05/04 10:08:47;;;;;;;14.55;2.70;;;8.90;99.90;;;;;;5124952;28;20038;-81
2021/05/04 10:11:17;;;;;;;12.98;2.25;;;8.90;99.90;;;;;;5129235;27;20035;-72
2021/05/04 10:13:44;;;;;;;13.95;3.20;;;8.90;99.90;;;;;;5088322;28;20053;-75
2021/05/04 10:16:11;;;;;;;14.90;2.80;;;9.50;99.90;;;;;;5110033;28;20043;-76
2021/05/04 10:18:37;;;;;;;18.65;2.90;;;9.00;99.90;;;;;;5123752;27;20031;-79
2021/05/04 10:21:08;;;;;;;27.52;3.60;;;9.00;99.90;;;;;;5128837;27;20045;-78
2021/05/04 10:23:36;;;;;;;22.77;3.78;;;9.30;99.90;;;;;;5127270;28;20041;-80
2021/05/04 10:26:06;;;;;;;14.20;3.10;;;9.30;99.90;;;;;;5109038;28;20051;-76
2021/05/04 10:28:38;;;;;;;32.25;4.32;;;9.60;99.90;;;;;;5125675;28;20536;-77
2021/05/04 10:31:06;;;;;;;26.00;4.32;;;9.70;99.90;;;;;;5126757;28;20095;-77
2021/05/04 10:33:39;;;;;;;23.75;4.28;;;9.80;99.90;;;;;;5126915;27;21523;-77
2021/05/04 10:36:25;;;;;;;18.15;3.33;;;9.80;99.90;;;;;;5119398;28;20036;-76
2021/05/04 10:38:53;;;;;;;;;;;9.80;99.90;;;;;;5125755;27;20042;-77
2021/05/04 10:41:23;;;;;;;10.40;2.45;;;9.80;99.90;;;;;;5117799;28;20425;-77
2021/05/04 10:43:59;;;;;;;13.00;2.40;;;9.70;99.90;;;;;;5101216;28;20036;-80
2021/05/04 10:46:43;;;;;;;6.00;1.67;;;9.80;99.90;;;;;;5107452;28;20121;-79
2021/05/04 10:49:18;;;;;;;5.20;1.30;;;9.50;99.90;;;;;;5097258;28;20043;-79
2021/05/04 10:51:52;;;;;;;4.80;1.27;;;9.70;99.90;;;;;;5093030;28;20119;-79
2021/05/04 10:54:22;;;;;;;3.65;1.02;;;8.90;99.90;;;;;;5079723;28;20118;-80
2021/05/04 10:57:01;;;;;;;4.97;1.17;;;8.70;99.90;;;;;;5112841;28;20039;-80
2021/05/04 10:59:27;;;;;;;7.82;1.40;;;8.60;99.90;;;;;;5099700;27;20035;-80
2021/05/04 11:02:27;;;;;;;6.00;1.67;;;8.50;99.90;;;;;;5111580;28;20105;-79
2021/05/04 11:04:55;;;;;;;6.03;1.98;;;8.50;99.90;;;;;;5054444;28;20147;-79
2021/05/04 11:07:51;;;;;;;7.60;1.67;;;8.60;99.90;;;;;;5112284;28;20055;-80
2021/05/04 11:10:20;;;;;;;12.23;2.60;;;8.70;99.90;;;;;;5110026;28;20068;-79
2021/05/04 11:12:46;;;;;;;11.98;2.58;;;8.80;99.90;;;;;;5112080;28;20214;-78
2021/05/04 11:15:23;;;;;;;8.30;2.80;;;8.80;99.90;;;;;;5110250;28;20036;-80
2021/05/04 11:17:53;;;;;;;7.50;2.63;;;8.90;99.90;;;;;;5093909;28;20550;-79
2021/05/04 11:20:51;;;;;;;13.60;3.22;;;9.00;99.90;;;;;;5099381;28;20062;-80
2021/05/04 11:23:23;;;;;;;9.73;2.42;;;9.20;99.90;;;;;;5044234;28;20391;-81
2021/05/04 11:25:49;;;;;;;12.70;2.60;;;9.30;99.90;;;;;;5085389;28;20497;-81
2021/05/04 11:28:17;;;;;;;16.48;2.72;;;9.40;99.90;;;;;;5108711;28;20111;-82
2021/05/04 11:30:43;;;;;;;13.98;2.42;;;9.20;99.90;;;;;;5119964;27;20037;-81
2021/05/04 11:33:44;;;;;;;11.00;2.42;;;9.60;99.90;;;;;;5116253;28;20035;-81
2021/05/04 11:36:10;;;;;;;7.93;1.85;;;9.20;99.90;;;;;;5022283;28;20489;-81
2021/05/04 11:38:38;;;;;;;9.57;2.33;;;8.90;99.90;;;;;;5078326;28;20055;-82
2021/05/04 11:41:10;;;;;;;6.50;2.25;;;8.90;99.90;;;;;;5070057;27;20035;-85
2021/05/04 11:44:17;;;;;;;5.35;1.75;;;8.80;99.90;;;;;;5102156;27;20045;-84
2021/05/04 11:47:24;;;;;;;6.22;1.88;;;8.80;99.90;;;;;;5089972;28;20047;-84
2021/05/04 11:50:21;;;;;;;9.45;2.33;;;9.00;99.90;;;;;;5115837;28;20425;-83
2021/05/04 11:52:52;;;;;;;5.22;1.95;;;8.80;99.90;;;;;;5104401;27;20445;-81
2021/05/04 11:55:24;;;;;;;6.50;2.58;;;9.30;99.90;;;;;;5115632;28;20433;-89
2021/05/04 11:57:59;;;;;;;6.97;2.13;;;9.00;99.90;;;;;;5097722;28;20039;-85
2021/05/04 12:00:26;;;;;;;9.23;2.67;;;9.00;99.90;;;;;;5106686;27;20446;-84
2021/05/04 12:02:53;;;;;;;8.07;1.80;;;8.70;99.90;;;;;;5115029;28;20127;-81
2021/05/04 12:05:28;;;;;;;4.95;1.73;;;8.90;99.90;;;;;;5114355;28;20075;-83
2021/05/04 12:07:57;;;;;;;4.38;1.58;;;9.00;99.90;;;;;;5098238;28;20043;-85
2021/05/04 12:10:47;;;;;;;6.68;2.17;;;9.20;99.90;;;;;;5114902;28;20027;-86
2021/05/04 12:13:19;;;;;;;7.97;2.20;;;9.20;99.90;;;;;;5108954;28;20035;-83
2021/05/04 12:15:46;;;;;;;11.18;2.25;;;9.50;99.90;;;;;;5104826;27;20125;-87
2021/05/04 12:18:28;;;;;;;8.68;2.40;;;9.10;99.90;;;;;;5125762;27;20035;-85
2021/05/04 12:20:59;;;;;;;7.63;2.50;;;9.00;99.90;;;;;;5111740;27;20111;-86
2021/05/04 12:23:29;;;;;;;10.25;2.83;;;8.90;99.90;;;;;;5126434;27;20383;-85
2021/05/04 12:26:01;;;;;;;6.32;2.50;;;8.80;99.90;;;;;;5129688;27;20069;-77
2021/05/04 12:28:31;;;;;;;6.78;2.15;;;8.70;99.90;;;;;;5127900;27;20360;-85
2021/05/04 12:31:05;;;;;;;10.32;2.70;;;8.60;99.90;;;;;;5109257;27;20035;-77
2021/05/04 12:33:31;;;;;;;9.95;2.90;;;8.50;99.90;;;;;;5129194;27;20036;-77
2021/05/04 12:36:04;;;;;;;5.63;2.60;;;8.50;99.90;;;;;;5131940;27;20046;-77
2021/05/04 12:38:40;;;;;;;8.38;3.03;;;8.50;99.90;;;;;;5129164;27;20039;-87
2021/05/04 12:41:14;;;;;;;9.85;3.45;;;8.70;99.90;;;;;;5128666;27;20034;-77
2021/05/04 12:43:43;;;;;;;8.25;3.55;;;8.80;99.90;;;;;;5109421;27;20045;-77
2021/05/04 12:46:33;;;;;;;8.90;3.50;;;9.00;99.90;;;;;;5127562;27;20098;-87
2021/05/04 12:49:01;;;;;;;9.63;4.20;;;9.00;99.90;;;;;;5108786;27;20112;-86
2021/05/04 12:51:29;;;;;;;10.95;3.60;;;9.10;99.90;;;;;;5109762;27;20392;-85
2021/05/04 12:54:14;;;;;;;11.05;3.33;;;9.70;99.90;;;;;;5110854;27;20034;-84
2021/05/04 12:56:40;;;;;;;4.70;2.38;;;9.30;99.90;;;;;;5111725;27;20064;-75
2021/05/04 12:59:14;;;;;;;10.57;2.85;;;9.90;99.90;;;;;;5095197;27;20024;-75
2021/05/04 13:01:49;;;;;;;8.38;2.40;;;9.40;99.90;;;;;;5126301;27;20376;-75
2021/05/04 13:04:33;;;;;;;3.75;2.38;;;9.20;99.90;;;;;;5109983;27;20427;-75
2021/05/04 13:07:10;;;;;;;9.43;3.08;;;9.40;99.90;;;;;;5086355;28;20052;-75
2021/05/04 13:10:03;;;;;;;9.35;3.03;;;9.40;99.90;;;;;;5101880;28;20123;-82
2021/05/04 13:35:01;;;;;;;8.30;2.03;;;8.90;99.90;;;;;;5071471;28;20548;-77